Time;durP1;ratioP1;P1;durP2;ratioP2;P2;SDS_P1;SDS_P2;PMS_P1;PMS_P2;Temp;Humidity;BMP_temperature;BMP_pressure;BME280_temperature;BME280_humidity;BME280_pressure;Samples;Min_cycle;Max_cycle;Signal;HPM_P1;HPM_P2
2023/04/04 00:01:24;;;;;;;3.08;1.60;;;;;;;;;;5034187;28;20477;-60
2023/04/04 00:03:50;;;;;;;3.47;1.80;;;;;;;;;;5033583;28;20389;-60
2023/04/04 00:06:17;;;;;;;2.63;1.55;;;;;;;;;;5033817;28;20105;-60
2023/04/04 00:08:43;;;;;;;3.38;1.60;;;;;;;;;;5033426;28;20029;-60
2023/04/04 00:11:09;;;;;;;2.90;1.75;;;;;;;;;;5033801;28;20363;-60
2023/04/04 00:13:35;;;;;;;2.75;1.55;;;;;;;;;;5033486;28;20041;-60
2023/04/04 00:16:01;;;;;;;4.05;1.50;;;;;;;;;;5033573;28;20540;-60
2023/04/04 00:18:27;;;;;;;2.40;1.27;;;;;;;;;;5033867;28;20026;-60
2023/04/04 00:20:53;;;;;;;2.72;1.30;;;;;;;;;;5033282;28;20312;-59
2023/04/04 00:23:19;;;;;;;2.97;1.85;;;;;;;;;;5033447;28;20037;-60
2023/04/04 00:25:50;;;;;;;2.40;1.38;;;;;;;;;;5033162;28;20017;-60
2023/04/04 00:28:16;;;;;;;4.65;1.33;;;;;;;;;;5033302;28;20118;-60
2023/04/04 00:30:42;;;;;;;3.50;1.48;;;;;;;;;;5033072;28;20049;-60
2023/04/04 00:33:08;;;;;;;3.78;1.70;;;;;;;;;;5033157;28;20037;-60
2023/04/04 00:35:34;;;;;;;2.65;1.38;;;;;;;;;;5033052;28;20025;-61
2023/04/04 00:38:00;;;;;;;2.67;1.40;;;;;;;;;;5033283;28;20048;-62
2023/04/04 00:40:26;;;;;;;2.25;1.30;;;;;;;;;;5033509;28;20053;-60
2023/04/04 00:42:53;;;;;;;2.88;1.52;;;;;;;;;;5032973;28;20038;-60
2023/04/04 00:45:19;;;;;;;2.97;1.65;;;;;;;;;;5033176;28;20043;-61
2023/04/04 00:47:45;;;;;;;3.50;1.50;;;;;;;;;;5032786;28;20100;-60
2023/04/04 00:50:11;;;;;;;3.35;1.40;;;;;;;;;;5032296;28;20045;-59
2023/04/04 00:52:37;;;;;;;3.60;1.70;;;;;;;;;;5032654;28;20389;-60
2023/04/04 00:55:03;;;;;;;2.53;1.42;;;;;;;;;;5033029;28;20039;-60
2023/04/04 00:57:30;;;;;;;3.35;1.27;;;;;;;;;;5032692;28;20064;-60
2023/04/04 00:59:59;;;;;;;3.25;1.20;;;;;;;;;;5033075;28;20029;-61
2023/04/04 01:02:25;;;;;;;4.38;1.58;;;;;;;;;;5033049;28;20022;-60
2023/04/04 01:04:51;;;;;;;3.65;1.60;;;;;;;;;;5032439;28;20386;-60
2023/04/04 01:07:18;;;;;;;2.72;1.23;;;;;;;;;;5032799;28;20025;-60
2023/04/04 01:09:44;;;;;;;3.58;1.50;;;;;;;;;;5032445;28;20029;-61
2023/04/04 01:12:10;;;;;;;1.80;1.13;;;;;;;;;;5032574;28;20104;-61
2023/04/04 01:14:36;;;;;;;2.63;1.15;;;;;;;;;;5032477;28;20029;-60
2023/04/04 01:17:02;;;;;;;3.45;1.45;;;;;;;;;;5032620;28;20021;-60
2023/04/04 01:19:36;;;;;;;2.97;1.30;;;;;;;;;;5032708;28;20053;-60
2023/04/04 01:22:04;;;;;;;3.15;1.30;;;;;;;;;;5032495;28;20026;-60
2023/04/04 01:24:32;;;;;;;4.35;1.60;;;;;;;;;;5032282;28;20043;-60
2023/04/04 01:26:59;;;;;;;3.88;1.45;;;;;;;;;;5032753;28;20487;-60
2023/04/04 01:29:26;;;;;;;2.03;1.30;;;;;;;;;;5032716;28;20053;-60
2023/04/04 01:32:08;;;;;;;2.15;1.20;;;;;;;;;;5031845;28;20028;-61
2023/04/04 01:34:40;;;;;;;3.67;1.33;;;;;;;;;;5032014;28;20404;-60
2023/04/04 01:37:24;;;;;;;2.05;1.17;;;;;;;;;;5032132;28;20489;-61
2023/04/04 01:39:56;;;;;;;3.95;1.80;;;;;;;;;;5031808;28;20120;-60
2023/04/04 01:42:23;;;;;;;4.82;1.45;;;;;;;;;;5031905;28;20021;-61
2023/04/04 01:44:54;;;;;;;4.05;1.80;;;;;;;;;;5031891;28;20347;-61
2023/04/04 01:47:20;;;;;;;3.20;1.20;;;;;;;;;;5031661;28;20363;-61
2023/04/04 01:49:47;;;;;;;4.80;1.52;;;;;;;;;;5031675;28;20036;-61
2023/04/04 01:52:13;;;;;;;2.95;1.58;;;;;;;;;;5031709;28;20044;-61
2023/04/04 01:54:39;;;;;;;3.92;1.55;;;;;;;;;;5031637;28;20021;-60
2023/04/04 01:57:05;;;;;;;2.15;1.20;;;;;;;;;;5031642;28;20025;-60
2023/04/04 01:59:31;;;;;;;3.33;1.65;;;;;;;;;;5031516;28;20051;-60
2023/04/04 02:01:57;;;;;;;3.75;1.58;;;;;;;;;;5031137;28;20017;-60
2023/04/04 02:04:23;;;;;;;2.30;1.20;;;;;;;;;;5031705;28;20036;-61
2023/04/04 02:06:50;;;;;;;4.60;1.40;;;;;;;;;;5031315;28;20021;-60
2023/04/04 02:09:16;;;;;;;3.88;1.95;;;;;;;;;;5031485;28;20034;-60
2023/04/04 02:11:42;;;;;;;3.05;1.40;;;;;;;;;;5031150;28;20104;-61
2023/04/04 02:14:08;;;;;;;2.53;1.33;;;;;;;;;;5031691;28;20057;-61
2023/04/04 02:16:34;;;;;;;3.25;1.50;;;;;;;;;;5031301;28;20013;-60
2023/04/04 02:19:00;;;;;;;4.35;1.70;;;;;;;;;;5031568;28;20029;-60
2023/04/04 02:21:27;;;;;;;3.05;1.40;;;;;;;;;;5031702;28;20436;-60
2023/04/04 02:23:53;;;;;;;2.22;1.40;;;;;;;;;;5031026;28;20022;-60
2023/04/04 02:26:20;;;;;;;4.57;1.67;;;;;;;;;;5031498;28;20901;-61
2023/04/04 02:28:46;;;;;;;3.17;1.40;;;;;;;;;;5031136;28;20025;-60
2023/04/04 02:31:12;;;;;;;2.85;1.70;;;;;;;;;;5031378;28;20048;-60
2023/04/04 02:33:38;;;;;;;2.40;1.33;;;;;;;;;;5030976;28;20474;-60
2023/04/04 02:36:04;;;;;;;4.93;1.45;;;;;;;;;;5031264;28;20109;-60
2023/04/04 02:38:30;;;;;;;2.40;1.40;;;;;;;;;;5030783;28;20438;-60
2023/04/04 02:40:56;;;;;;;2.45;1.27;;;;;;;;;;5031470;28;20021;-60
2023/04/04 02:43:22;;;;;;;2.05;1.08;;;;;;;;;;5030966;28;20401;-60
2023/04/04 02:45:48;;;;;;;2.42;1.30;;;;;;;;;;5030947;28;20053;-60
2023/04/04 02:48:14;;;;;;;2.88;1.27;;;;;;;;;;5031100;28;20524;-58
2023/04/04 02:50:40;;;;;;;2.25;1.38;;;;;;;;;;5030860;28;20022;-61
2023/04/04 02:53:06;;;;;;;2.80;1.27;;;;;;;;;;5030824;28;20067;-60
2023/04/04 02:55:32;;;;;;;2.63;1.65;;;;;;;;;;5030863;28;20460;-60
2023/04/04 02:58:00;;;;;;;2.53;1.30;;;;;;;;;;5031401;28;20087;-61
2023/04/04 03:00:26;;;;;;;3.05;1.40;;;;;;;;;;5031156;28;20029;-60
2023/04/04 03:02:56;;;;;;;3.15;1.83;;;;;;;;;;5030778;28;20104;-60
2023/04/04 03:05:25;;;;;;;2.60;1.48;;;;;;;;;;5031375;28;20500;-60
2023/04/04 03:07:55;;;;;;;3.38;1.88;;;;;;;;;;5030595;28;20030;-61
2023/04/04 03:10:21;;;;;;;2.33;1.15;;;;;;;;;;5030950;28;20362;-60
2023/04/04 03:12:47;;;;;;;2.03;1.30;;;;;;;;;;5030724;28;20041;-61
2023/04/04 03:15:13;;;;;;;2.10;1.10;;;;;;;;;;5034788;28;20028;-60
2023/04/04 03:17:39;;;;;;;4.03;1.58;;;;;;;;;;5034440;28;20064;-61
2023/04/04 03:20:05;;;;;;;2.45;1.40;;;;;;;;;;5034833;28;20053;-60
2023/04/04 03:22:31;;;;;;;2.50;1.10;;;;;;;;;;5034582;28;20037;-60
2023/04/04 03:24:57;;;;;;;1.60;1.08;;;;;;;;;;5034955;28;20025;-60
2023/04/04 03:27:23;;;;;;;3.00;1.35;;;;;;;;;;5034478;28;20029;-61
2023/04/04 03:29:49;;;;;;;4.45;1.33;;;;;;;;;;5034339;28;20029;-60
2023/04/04 03:32:17;;;;;;;2.60;1.00;;;;;;;;;;5034487;28;20445;-61
2023/04/04 03:34:43;;;;;;;2.50;1.10;;;;;;;;;;5034247;28;20045;-60
2023/04/04 03:37:09;;;;;;;4.65;1.80;;;;;;;;;;5034304;28;20470;-61
2023/04/04 03:39:35;;;;;;;2.25;1.40;;;;;;;;;;5034098;28;20025;-60
2023/04/04 03:42:01;;;;;;;2.92;1.40;;;;;;;;;;5034113;28;20108;-60
2023/04/04 03:44:27;;;;;;;2.03;1.30;;;;;;;;;;5034696;28;20109;-60
2023/04/04 03:46:53;;;;;;;2.53;1.15;;;;;;;;;;5034103;28;20036;-60
2023/04/04 03:49:20;;;;;;;3.13;1.13;;;;;;;;;;5034063;28;20042;-61
2023/04/04 03:51:47;;;;;;;2.60;1.48;;;;;;;;;;5033802;28;20095;-60
2023/04/04 03:54:13;;;;;;;2.47;1.40;;;;;;;;;;5034242;28;20033;-61
2023/04/04 03:56:39;;;;;;;3.72;1.52;;;;;;;;;;5033929;28;20371;-60
2023/04/04 03:59:05;;;;;;;2.10;1.08;;;;;;;;;;5034062;28;20035;-61
2023/04/04 04:01:31;;;;;;;2.28;1.00;;;;;;;;;;5033534;28;20026;-60
2023/04/04 04:03:59;;;;;;;2.35;1.25;;;;;;;;;;5034010;28;20025;-61
2023/04/04 04:06:26;;;;;;;2.00;1.05;;;;;;;;;;5033980;28;20485;-59
2023/04/04 04:08:52;;;;;;;3.30;1.23;;;;;;;;;;5033715;28;20025;-61
2023/04/04 04:11:18;;;;;;;2.97;1.10;;;;;;;;;;5033824;28;20040;-60
2023/04/04 04:13:44;;;;;;;2.50;1.30;;;;;;;;;;5033430;28;20116;-60
2023/04/04 04:16:10;;;;;;;2.28;1.08;;;;;;;;;;5033714;28;20049;-60
2023/04/04 04:18:36;;;;;;;2.08;1.20;;;;;;;;;;5033392;28;20029;-60
2023/04/04 04:21:03;;;;;;;2.60;1.15;;;;;;;;;;5033786;28;20064;-60
2023/04/04 04:23:30;;;;;;;2.63;1.05;;;;;;;;;;5033423;28;20075;-60
2023/04/04 04:25:56;;;;;;;2.83;1.52;;;;;;;;;;5032829;28;20026;-59
2023/04/04 04:28:25;;;;;;;2.28;1.13;;;;;;;;;;5033448;28;20071;-60
2023/04/04 04:30:51;;;;;;;2.00;1.30;;;;;;;;;;5033174;28;20022;-60
2023/04/04 04:33:17;;;;;;;1.98;1.10;;;;;;;;;;5033193;28;20038;-60
2023/04/04 04:35:43;;;;;;;2.47;1.23;;;;;;;;;;5033110;28;20028;-60
2023/04/04 04:38:09;;;;;;;4.22;1.45;;;;;;;;;;5033357;28;20025;-60
2023/04/04 04:40:36;;;;;;;2.45;1.10;;;;;;;;;;5033066;28;20022;-61
2023/04/04 04:43:02;;;;;;;2.15;1.08;;;;;;;;;;5033138;28;20389;-60
2023/04/04 04:45:28;;;;;;;2.22;1.00;;;;;;;;;;5033484;28;20029;-60
2023/04/04 04:47:54;;;;;;;2.40;1.20;;;;;;;;;;5033344;28;20029;-60
2023/04/04 04:50:20;;;;;;;2.95;1.50;;;;;;;;;;5033147;28;20033;-61
2023/04/04 04:52:46;;;;;;;2.85;0.95;;;;;;;;;;5032714;28;20029;-60
2023/04/04 04:55:12;;;;;;;3.38;1.20;;;;;;;;;;5033017;28;20026;-60
2023/04/04 04:57:38;;;;;;;3.53;1.40;;;;;;;;;;5032718;28;20500;-60
2023/04/04 05:00:04;;;;;;;3.72;1.30;;;;;;;;;;5032936;28;20026;-60
2023/04/04 05:02:30;;;;;;;2.50;1.33;;;;;;;;;;5032715;28;20091;-60
2023/04/04 05:04:56;;;;;;;2.40;1.60;;;;;;;;;;5033092;28;20100;-61
2023/04/04 05:07:22;;;;;;;2.38;1.27;;;;;;;;;;5032732;28;20029;-59
2023/04/04 05:09:50;;;;;;;3.28;1.38;;;;;;;;;;5032525;28;20881;-61
2023/04/04 05:12:16;;;;;;;3.92;1.40;;;;;;;;;;5009399;28;20091;-60
2023/04/04 05:14:43;;;;;;;3.13;1.40;;;;;;;;;;5012541;28;20116;-60
2023/04/04 05:17:09;;;;;;;3.03;1.60;;;;;;;;;;5012178;28;20513;-61
2023/04/04 05:19:35;;;;;;;2.55;1.30;;;;;;;;;;5012050;28;20113;-60
2023/04/04 05:22:02;;;;;;;2.92;1.55;;;;;;;;;;5012714;28;20038;-60
2023/04/04 05:24:27;;;;;;;2.78;1.50;;;;;;;;;;5008205;28;20044;-61
2023/04/04 05:26:53;;;;;;;4.20;1.42;;;;;;;;;;5011575;28;20490;-60
2023/04/04 05:29:19;;;;;;;3.08;1.52;;;;;;;;;;5011852;28;20034;-60
2023/04/04 05:31:46;;;;;;;4.30;1.83;;;;;;;;;;5012073;28;20034;-60
2023/04/04 05:34:12;;;;;;;2.58;1.15;;;;;;;;;;5011499;28;20482;-59
2023/04/04 05:36:37;;;;;;;2.35;1.05;;;;;;;;;;5011305;28;20034;-61
2023/04/04 05:39:03;;;;;;;2.92;1.42;;;;;;;;;;5012340;28;20509;-60
2023/04/04 05:41:30;;;;;;;2.78;1.30;;;;;;;;;;5012152;28;20030;-60
2023/04/04 05:43:56;;;;;;;2.05;1.10;;;;;;;;;;5012288;28;20040;-61
2023/04/04 05:46:22;;;;;;;4.03;1.90;;;;;;;;;;5012596;28;20038;-59
2023/04/04 05:48:49;;;;;;;2.90;1.42;;;;;;;;;;5011603;28;20029;-58
2023/04/04 05:51:15;;;;;;;4.93;1.60;;;;;;;;;;5011834;28;20029;-60
2023/04/04 05:53:41;;;;;;;3.95;1.73;;;;;;;;;;5018984;28;20096;-58
2023/04/04 05:56:07;;;;;;;5.50;1.33;;;;;;;;;;5028427;28;20049;-59
2023/04/04 05:58:33;;;;;;;8.70;1.38;;;;;;;;;;5016196;28;20485;-59
2023/04/04 06:01:00;;;;;;;5.18;1.40;;;;;;;;;;5012123;28;20025;-60
2023/04/04 06:03:27;;;;;;;3.25;1.50;;;;;;;;;;5011362;28;20141;-61
2023/04/04 06:05:53;;;;;;;4.80;1.55;;;;;;;;;;5011772;28;20037;-61
2023/04/04 06:08:19;;;;;;;3.85;1.63;;;;;;;;;;5011911;28;20057;-60
2023/04/04 06:10:45;;;;;;;7.00;1.73;;;;;;;;;;5011665;28;20022;-59
2023/04/04 06:13:11;;;;;;;2.83;1.70;;;;;;;;;;5011497;28;20060;-56
2023/04/04 06:15:37;;;;;;;3.00;2.05;;;;;;;;;;5011721;28;20022;-58
2023/04/04 06:18:03;;;;;;;4.13;2.17;;;;;;;;;;5011935;28;20506;-59
2023/04/04 06:20:29;;;;;;;4.07;1.98;;;;;;;;;;4993914;28;20022;-58
2023/04/04 06:22:55;;;;;;;4.70;1.80;;;;;;;;;;5011847;28;20501;-60
2023/04/04 06:25:21;;;;;;;7.75;1.85;;;;;;;;;;5011502;28;20026;-60
2023/04/04 06:27:47;;;;;;;4.18;1.92;;;;;;;;;;5011293;28;20030;-60
2023/04/04 06:30:15;;;;;;;3.22;1.83;;;;;;;;;;5011752;28;20026;-59
2023/04/04 06:32:41;;;;;;;3.95;2.10;;;;;;;;;;5010917;28;20390;-60
2023/04/04 06:35:08;;;;;;;4.82;1.92;;;;;;;;;;5011232;28;20029;-60
2023/04/04 06:37:34;;;;;;;3.92;1.77;;;;;;;;;;5011183;28;20402;-60
2023/04/04 06:40:00;;;;;;;4.03;2.03;;;;;;;;;;5011656;28;20026;-59
2023/04/04 06:42:27;;;;;;;5.07;1.70;;;;;;;;;;5011604;28;20519;-59
2023/04/04 06:44:52;;;;;;;5.15;1.73;;;;;;;;;;5011348;28;20026;-58
2023/04/04 06:47:20;;;;;;;5.68;2.03;;;;;;;;;;5006304;28;20511;-60
2023/04/04 06:49:46;;;;;;;4.97;2.30;;;;;;;;;;5010622;28;20034;-60
2023/04/04 06:52:12;;;;;;;4.93;1.85;;;;;;;;;;5011378;28;20057;-60
2023/04/04 06:54:38;;;;;;;5.13;2.20;;;;;;;;;;5011053;28;20022;-60
2023/04/04 06:57:04;;;;;;;9.68;2.25;;;;;;;;;;5011043;28;20069;-59
2023/04/04 06:59:30;;;;;;;6.82;2.10;;;;;;;;;;5007184;28;20026;-59
2023/04/04 07:01:57;;;;;;;3.00;1.52;;;;;;;;;;5010844;28;20033;-59
2023/04/04 07:04:23;;;;;;;6.10;1.92;;;;;;;;;;5009469;28;20034;-59
2023/04/04 07:06:49;;;;;;;8.35;2.03;;;;;;;;;;5010755;28;20125;-60
2023/04/04 07:09:15;;;;;;;6.90;1.75;;;;;;;;;;5010822;28;20022;-59
2023/04/04 07:11:41;;;;;;;10.60;2.05;;;;;;;;;;5010948;28;20030;-59
2023/04/04 07:14:07;;;;;;;5.07;1.30;;;;;;;;;;5011288;28;20049;-59
2023/04/04 07:16:35;;;;;;;3.28;1.73;;;;;;;;;;5010953;28;20026;-59
2023/04/04 07:19:01;;;;;;;4.63;1.88;;;;;;;;;;5011067;28;20116;-59
2023/04/04 07:21:27;;;;;;;12.38;2.40;;;;;;;;;;5011336;28;20061;-60
2023/04/04 07:23:53;;;;;;;2.65;1.30;;;;;;;;;;5008990;28;20513;-60
2023/04/04 07:26:20;;;;;;;3.63;1.42;;;;;;;;;;5010914;28;20029;-60
2023/04/04 07:28:46;;;;;;;5.30;1.85;;;;;;;;;;5010883;28;20033;-59
2023/04/04 07:31:13;;;;;;;4.82;2.15;;;;;;;;;;5010015;28;20022;-62
2023/04/04 07:33:39;;;;;;;5.75;1.80;;;;;;;;;;5017146;28;20528;-59
2023/04/04 07:36:05;;;;;;;5.03;1.60;;;;;;;;;;5018230;28;20022;-60
2023/04/04 07:38:31;;;;;;;6.15;1.92;;;;;;;;;;5019222;28;20071;-57
2023/04/04 07:40:57;;;;;;;3.63;1.70;;;;;;;;;;5019998;28;20080;-62
2023/04/04 07:43:23;;;;;;;3.40;2.03;;;;;;;;;;5018011;28;20449;-59
2023/04/04 07:45:49;;;;;;;5.28;2.00;;;;;;;;;;5019540;28;20079;-60
2023/04/04 07:48:16;;;;;;;4.82;1.50;;;;;;;;;;5023419;28;20026;-60
2023/04/04 07:50:42;;;;;;;3.28;1.15;;;;;;;;;;5030321;28;20029;-60
2023/04/04 07:53:08;;;;;;;8.38;2.22;;;;;;;;;;5030377;28;20065;-59
2023/04/04 07:55:34;;;;;;;3.13;1.48;;;;;;;;;;5030220;28;20062;-61
2023/04/04 07:58:00;;;;;;;4.80;1.70;;;;;;;;;;5022511;28;20075;-59
2023/04/04 08:00:26;;;;;;;5.55;1.38;;;;;;;;;;5012130;28;20022;-60
2023/04/04 08:02:53;;;;;;;5.95;1.95;;;;;;;;;;5013996;28;20034;-60
2023/04/04 08:05:19;;;;;;;5.25;1.45;;;;;;;;;;5014230;28;20026;-62
2023/04/04 08:07:45;;;;;;;4.05;1.30;;;;;;;;;;5013713;28;20034;-61
2023/04/04 08:10:11;;;;;;;4.60;1.80;;;;;;;;;;5019192;28;20026;-60
2023/04/04 08:12:38;;;;;;;4.85;1.50;;;;;;;;;;5011163;28;20040;-60
2023/04/04 08:15:04;;;;;;;5.18;1.70;;;;;;;;;;5033657;28;20033;-60
2023/04/04 08:17:30;;;;;;;4.47;1.60;;;;;;;;;;5033408;28;20425;-60
2023/04/04 08:19:56;;;;;;;2.13;1.40;;;;;;;;;;5033974;28;20021;-60
2023/04/04 08:22:22;;;;;;;3.88;1.55;;;;;;;;;;5033517;28;20044;-60
2023/04/04 08:24:48;;;;;;;6.07;1.70;;;;;;;;;;5033426;28;20036;-60
2023/04/04 08:27:15;;;;;;;3.33;1.50;;;;;;;;;;5033450;28;20444;-60
2023/04/04 08:29:42;;;;;;;4.15;1.67;;;;;;;;;;5033384;28;20033;-61
2023/04/04 08:32:08;;;;;;;2.28;1.23;;;;;;;;;;5033314;28;20032;-60
2023/04/04 08:34:35;;;;;;;3.95;1.63;;;;;;;;;;5033243;28;20112;-60
2023/04/04 08:37:01;;;;;;;4.53;1.73;;;;;;;;;;5033261;28;20029;-59
2023/04/04 08:39:27;;;;;;;4.22;1.60;;;;;;;;;;5033623;28;20076;-60
2023/04/04 08:42:04;;;;;;;5.25;1.67;;;;;;;;;;5032912;28;20030;-60
2023/04/04 08:44:30;;;;;;;2.88;1.05;;;;;;;;;;5032859;28;20075;-60
2023/04/04 08:46:58;;;;;;;2.33;1.40;;;;;;;;;;5033523;28;20033;-60
2023/04/04 08:49:26;;;;;;;4.00;1.40;;;;;;;;;;5033171;28;20026;-60
2023/04/04 08:51:55;;;;;;;3.60;1.42;;;;;;;;;;5032997;28;20043;-60
2023/04/04 08:54:21;;;;;;;3.13;1.35;;;;;;;;;;5033160;28;20109;-60
2023/04/04 08:56:47;;;;;;;3.58;1.48;;;;;;;;;;5032780;28;20032;-61
2023/04/04 08:59:14;;;;;;;6.10;2.13;;;;;;;;;;5033016;28;20029;-59
2023/04/04 09:01:41;;;;;;;4.47;1.60;;;;;;;;;;5032522;28;20033;-60
2023/04/04 09:04:08;;;;;;;3.85;1.50;;;;;;;;;;5032891;28;20029;-60
2023/04/04 09:06:34;;;;;;;3.58;1.48;;;;;;;;;;5032596;28;20033;-60
2023/04/04 09:09:00;;;;;;;3.03;1.35;;;;;;;;;;5032850;28;20029;-61
2023/04/04 09:11:27;;;;;;;4.80;1.48;;;;;;;;;;5032553;28;20128;-61
2023/04/04 09:13:54;;;;;;;3.70;1.40;;;;;;;;;;5032313;28;20037;-60
2023/04/04 09:16:20;;;;;;;4.13;1.30;;;;;;;;;;5032546;28;20037;-60
2023/04/04 09:18:46;;;;;;;2.63;1.48;;;;;;;;;;5027561;28;20397;-60
2023/04/04 09:21:12;;;;;;;5.30;1.30;;;;;;;;;;5018967;28;20053;-60
2023/04/04 09:23:39;;;;;;;5.35;1.50;;;;;;;;;;5032322;28;20030;-60
2023/04/04 09:26:05;;;;;;;4.35;1.65;;;;;;;;;;5028962;28;20038;-61
2023/04/04 09:28:31;;;;;;;3.08;1.50;;;;;;;;;;5032137;28;20048;-61
2023/04/04 09:31:00;;;;;;;2.95;1.10;;;;;;;;;;5032318;28;20120;-60
2023/04/04 09:33:26;;;;;;;2.90;1.50;;;;;;;;;;5022548;28;20059;-61
2023/04/04 09:35:59;;;;;;;3.40;1.60;;;;;;;;;;5012280;28;20105;-60
2023/04/04 09:38:25;;;;;;;2.67;1.15;;;;;;;;;;5013025;28;20434;-60
2023/04/04 09:40:52;;;;;;;2.15;1.33;;;;;;;;;;4994825;28;20037;-58
2023/04/04 09:43:20;;;;;;;4.10;1.50;;;;;;;;;;5011951;28;20444;-59
2023/04/04 09:45:46;;;;;;;3.15;1.00;;;;;;;;;;5012054;28;20112;-60
2023/04/04 09:48:12;;;;;;;2.65;1.27;;;;;;;;;;5012267;28;20443;-60
2023/04/04 09:50:45;;;;;;;2.17;1.15;;;;;;;;;;5011880;28;20022;-61
2023/04/04 09:53:17;;;;;;;2.75;1.20;;;;;;;;;;5012163;28;20030;-60
2023/04/04 09:55:48;;;;;;;2.42;1.00;;;;;;;;;;5023342;28;20049;-60
2023/04/04 09:58:27;;;;;;;2.30;1.27;;;;;;;;;;5027204;28;20544;-60
2023/04/04 10:00:55;;;;;;;1.85;0.82;;;;;;;;;;5031564;28;20108;-60
2023/04/04 10:03:22;;;;;;;4.15;1.48;;;;;;;;;;5030030;28;20036;-61
2023/04/04 10:05:48;;;;;;;3.60;1.00;;;;;;;;;;5030101;28;20022;-61
2023/04/04 10:08:15;;;;;;;1.83;0.93;;;;;;;;;;5030792;28;20119;-61
2023/04/04 10:11:10;;;;;;;3.22;1.23;;;;;;;;;;5030489;28;20025;-60
2023/04/04 10:13:42;;;;;;;4.97;1.40;;;;;;;;;;5018038;28;20417;-60
2023/04/04 10:16:09;;;;;;;4.10;1.30;;;;;;;;;;5031403;28;20056;-60
2023/04/04 10:18:35;;;;;;;1.95;0.90;;;;;;;;;;5031132;28;20041;-60
2023/04/04 10:21:02;;;;;;;2.92;0.98;;;;;;;;;;5031564;28;20021;-61
2023/04/04 10:23:28;;;;;;;3.45;1.52;;;;;;;;;;5031126;28;20040;-58
2023/04/04 10:25:55;;;;;;;1.90;0.80;;;;;;;;;;5031678;28;20096;-61
2023/04/04 10:28:21;;;;;;;2.38;1.00;;;;;;;;;;5031029;28;20033;-60
2023/04/04 10:30:52;;;;;;;2.67;1.10;;;;;;;;;;5030997;28;20108;-58
2023/04/04 10:33:30;;;;;;;3.10;1.23;;;;;;;;;;5031175;28;20048;-60
2023/04/04 10:36:02;;;;;;;2.00;0.98;;;;;;;;;;5031663;28;20156;-61
2023/04/04 10:38:28;;;;;;;2.92;1.38;;;;;;;;;;5031614;28;20022;-61
2023/04/04 10:40:58;;;;;;;3.90;1.30;;;;;;;;;;5031524;28;20036;-62
2023/04/04 10:43:25;;;;;;;2.53;1.30;;;;;;;;;;5031340;28;20515;-61
2023/04/04 10:45:52;;;;;;;2.95;1.23;;;;;;;;;;5030902;28;20026;-61
2023/04/04 10:48:18;;;;;;;2.00;0.88;;;;;;;;;;5013496;28;20071;-61
2023/04/04 10:50:44;;;;;;;1.88;1.15;;;;;;;;;;5030965;28;20033;-64
2023/04/04 10:53:11;;;;;;;2.17;0.95;;;;;;;;;;5031095;28;20043;-58
2023/04/04 10:55:39;;;;;;;2.75;0.90;;;;;;;;;;5030836;28;20022;-61
2023/04/04 10:58:07;;;;;;;2.30;1.10;;;;;;;;;;5030973;28;20497;-61
2023/04/04 11:00:33;;;;;;;2.28;1.27;;;;;;;;;;5030743;28;20079;-61
2023/04/04 11:03:00;;;;;;;3.13;1.10;;;;;;;;;;5031139;28;20401;-60
2023/04/04 11:05:29;;;;;;;1.92;1.00;;;;;;;;;;5031206;28;20104;-60
2023/04/04 11:08:00;;;;;;;3.55;1.20;;;;;;;;;;5031295;28;20044;-60
2023/04/04 11:10:28;;;;;;;2.10;1.13;;;;;;;;;;5031263;28;20033;-61
2023/04/04 11:12:55;;;;;;;2.58;0.90;;;;;;;;;;5030923;28;20036;-61
2023/04/04 11:15:22;;;;;;;2.55;1.13;;;;;;;;;;5030841;28;20025;-61
2023/04/04 11:17:48;;;;;;;3.78;1.48;;;;;;;;;;5030766;28;20033;-60
2023/04/04 11:20:15;;;;;;;3.58;1.08;;;;;;;;;;5030836;28;20029;-60
2023/04/04 11:22:42;;;;;;;3.45;1.40;;;;;;;;;;5030669;28;20026;-62
2023/04/04 11:25:27;;;;;;;2.90;1.17;;;;;;;;;;5030794;28;20038;-61
2023/04/04 11:27:56;;;;;;;1.85;1.02;;;;;;;;;;5030399;28;20481;-60
2023/04/04 11:30:23;;;;;;;2.47;1.05;;;;;;;;;;5030895;28;20029;-61
2023/04/04 11:32:50;;;;;;;2.25;1.15;;;;;;;;;;5030482;28;20049;-62
2023/04/04 11:35:16;;;;;;;2.33;1.10;;;;;;;;;;5033259;28;20025;-61
2023/04/04 11:38:03;;;;;;;1.90;1.00;;;;;;;;;;5034106;28;20021;-65
2023/04/04 11:40:41;;;;;;;1.60;1.10;;;;;;;;;;5034384;28;20060;-61
2023/04/04 11:43:08;;;;;;;2.25;1.00;;;;;;;;;;5034251;28;20037;-61
2023/04/04 11:45:35;;;;;;;2.33;1.02;;;;;;;;;;5034189;28;20104;-61
2023/04/04 11:48:02;;;;;;;2.22;1.10;;;;;;;;;;5034192;28;20033;-60
2023/04/04 11:50:34;;;;;;;2.70;1.40;;;;;;;;;;5034555;28;20041;-61
2023/04/04 11:53:01;;;;;;;2.88;1.15;;;;;;;;;;5034104;28;20069;-61
2023/04/04 11:55:27;;;;;;;2.42;1.08;;;;;;;;;;5034563;28;20028;-61
2023/04/04 11:57:54;;;;;;;2.40;1.20;;;;;;;;;;5033743;28;20037;-61
2023/04/04 12:00:35;;;;;;;2.00;1.08;;;;;;;;;;5033958;28;20038;-61
2023/04/04 12:03:01;;;;;;;1.75;1.30;;;;;;;;;;5033937;28;20061;-60
2023/04/04 12:05:27;;;;;;;3.75;1.42;;;;;;;;;;5034257;28;20053;-60
2023/04/04 12:07:53;;;;;;;2.20;1.23;;;;;;;;;;5033686;28;20076;-59
2023/04/04 12:10:21;;;;;;;2.80;1.30;;;;;;;;;;5033770;28;20103;-61
2023/04/04 12:12:47;;;;;;;2.80;1.50;;;;;;;;;;5033488;28;20091;-60
2023/04/04 12:15:13;;;;;;;2.28;1.35;;;;;;;;;;5033409;28;20030;-61
2023/04/04 12:17:44;;;;;;;4.22;1.75;;;;;;;;;;5033224;28;20080;-60
2023/04/04 12:20:10;;;;;;;2.00;1.05;;;;;;;;;;5033941;28;20030;-60
2023/04/04 12:22:37;;;;;;;3.65;1.63;;;;;;;;;;5032972;28;20017;-58
2023/04/04 12:25:05;;;;;;;3.55;1.38;;;;;;;;;;5022959;28;20502;-62
2023/04/04 12:27:31;;;;;;;4.30;1.45;;;;;;;;;;5022236;28;20028;-62
2023/04/04 12:29:58;;;;;;;1.92;1.20;;;;;;;;;;5021195;28;20069;-61
2023/04/04 12:32:24;;;;;;;2.88;1.52;;;;;;;;;;5030044;28;20029;-60
2023/04/04 12:34:50;;;;;;;3.97;1.67;;;;;;;;;;5033264;28;20504;-62
2023/04/04 12:37:18;;;;;;;3.67;1.85;;;;;;;;;;5033489;28;20033;-60
2023/04/04 12:39:51;;;;;;;5.30;1.42;;;;;;;;;;5033000;28;20033;-60
2023/04/04 12:42:24;;;;;;;2.95;1.58;;;;;;;;;;5033067;28;20405;-61
2023/04/04 12:44:53;;;;;;;2.70;1.52;;;;;;;;;;5032983;28;20061;-61
2023/04/04 12:47:22;;;;;;;3.65;1.52;;;;;;;;;;5032377;28;20482;-61
2023/04/04 12:49:49;;;;;;;3.13;1.70;;;;;;;;;;5032813;28;20056;-58
2023/04/04 12:52:17;;;;;;;5.53;1.95;;;;;;;;;;5033089;28;20036;-61
2023/04/04 12:54:43;;;;;;;2.70;1.73;;;;;;;;;;5032947;28;20018;-57
2023/04/04 12:57:11;;;;;;;3.20;2.03;;;;;;;;;;5032948;28;20513;-59
2023/04/04 12:59:38;;;;;;;6.43;1.88;;;;;;;;;;5032704;28;20440;-60
2023/04/04 13:02:08;;;;;;;3.00;1.55;;;;;;;;;;5033018;28;20112;-61
2023/04/04 13:04:34;;;;;;;3.65;1.50;;;;;;;;;;5032621;28;20124;-61
2023/04/04 13:07:01;;;;;;;2.92;1.77;;;;;;;;;;5033000;28;20141;-61
2023/04/04 13:09:27;;;;;;;3.10;1.80;;;;;;;;;;5033065;28;20029;-60
2023/04/04 13:12:01;;;;;;;2.67;1.65;;;;;;;;;;5032424;28;20033;-60
2023/04/04 13:14:28;;;;;;;2.85;1.65;;;;;;;;;;5033084;28;20045;-61
2023/04/04 13:17:04;;;;;;;2.78;1.75;;;;;;;;;;5032486;28;20037;-62
2023/04/04 13:19:31;;;;;;;4.57;2.28;;;;;;;;;;5032504;28;20072;-60
2023/04/04 13:21:57;;;;;;;2.60;1.75;;;;;;;;;;5032873;28;20363;-60
2023/04/04 13:24:23;;;;;;;3.10;1.98;;;;;;;;;;5032475;28;20058;-60
2023/04/04 13:26:49;;;;;;;3.08;1.95;;;;;;;;;;5032514;28;20573;-60
2023/04/04 13:29:15;;;;;;;3.97;2.00;;;;;;;;;;5032368;28;20025;-60
2023/04/04 13:31:41;;;;;;;2.72;1.70;;;;;;;;;;5032181;28;20033;-60
2023/04/04 13:34:07;;;;;;;3.58;2.10;;;;;;;;;;5032051;28;20037;-60
2023/04/04 13:36:33;;;;;;;4.30;1.92;;;;;;;;;;5032035;28;20021;-61
2023/04/04 13:38:58;;;;;;;4.65;2.10;;;;;;;;;;5032370;28;20105;-60
2023/04/04 13:41:24;;;;;;;4.93;2.25;;;;;;;;;;5032510;28;20021;-60
2023/04/04 13:43:51;;;;;;;3.35;2.35;;;;;;;;;;5031688;28;20068;-60
2023/04/04 13:46:17;;;;;;;3.95;1.95;;;;;;;;;;5032173;28;20036;-60
2023/04/04 13:48:43;;;;;;;3.20;2.30;;;;;;;;;;5031782;28;20033;-60
2023/04/04 13:51:09;;;;;;;3.03;2.30;;;;;;;;;;5031917;28;20108;-60
2023/04/04 13:53:35;;;;;;;3.40;2.28;;;;;;;;;;5031475;28;20109;-60
2023/04/04 13:56:01;;;;;;;4.70;2.47;;;;;;;;;;5031952;28;20049;-60
2023/04/04 13:58:27;;;;;;;3.72;2.13;;;;;;;;;;5032114;28;20037;-60
2023/04/04 14:00:56;;;;;;;3.38;2.20;;;;;;;;;;5031596;28;20509;-60
2023/04/04 14:03:22;;;;;;;3.67;2.00;;;;;;;;;;5031806;28;20064;-61
2023/04/04 14:05:49;;;;;;;2.95;2.08;;;;;;;;;;5031483;28;20029;-60
2023/04/04 14:08:15;;;;;;;4.53;2.70;;;;;;;;;;5029608;28;20041;-60
2023/04/04 14:10:41;;;;;;;3.80;2.00;;;;;;;;;;5020147;28;20072;-61
2023/04/04 14:13:07;;;;;;;3.30;2.28;;;;;;;;;;5018781;28;20030;-60
2023/04/04 14:15:33;;;;;;;3.97;2.47;;;;;;;;;;5020669;28;20022;-61
2023/04/04 14:17:59;;;;;;;3.50;2.15;;;;;;;;;;5020147;28;20022;-61
2023/04/04 14:20:25;;;;;;;3.33;2.40;;;;;;;;;;5019315;28;20101;-60
2023/04/04 14:22:51;;;;;;;4.68;1.88;;;;;;;;;;5020678;28;20033;-60
2023/04/04 14:25:17;;;;;;;2.97;1.88;;;;;;;;;;5019900;28;20089;-61
2023/04/04 14:27:43;;;;;;;3.95;2.50;;;;;;;;;;5024566;28;20021;-60
2023/04/04 14:30:09;;;;;;;5.03;2.58;;;;;;;;;;5031247;28;20153;-60
2023/04/04 14:32:35;;;;;;;3.40;2.30;;;;;;;;;;5021521;28;20041;-61
2023/04/04 14:35:01;;;;;;;3.08;2.08;;;;;;;;;;5015738;28;20084;-61
2023/04/04 14:37:27;;;;;;;3.33;2.40;;;;;;;;;;5011485;28;20030;-61
2023/04/04 14:39:53;;;;;;;3.38;2.38;;;;;;;;;;5011288;28;20486;-60
2023/04/04 14:42:20;;;;;;;4.03;2.10;;;;;;;;;;5011246;28;20080;-60